sensor_id;sensor_type;location;lat;lon;timestamp;temperature;humidity
29207;DHT22;16247;50.840;4.382;2023-06-14T04:06:45;20.60;99.90
29207;DHT22;16247;50.840;4.382;2023-06-14T04:09:15;20.70;99.90
29207;DHT22;16247;50.840;4.382;2023-06-14T04:11:47;20.60;99.90
29207;DHT22;16247;50.840;4.382;2023-06-14T04:14:16;20.60;99.90
29207;DHT22;16247;50.840;4.382;2023-06-14T04:16:53;20.70;99.90
29207;DHT22;16247;50.840;4.382;2023-06-14T04:45:39;20.50;99.90
29207;DHT22;16247;50.840;4.382;2023-06-14T04:50:50;20.40;99.90
29207;DHT22;16247;50.840;4.382;2023-06-14T04:53:18;20.40;99.90
29207;DHT22;16247;50.840;4.382;2023-06-14T04:55:47;20.50;99.90
29207;DHT22;16247;50.840;4.382;2023-06-14T04:58:12;20.70;99.90
29207;DHT22;16247;50.840;4.382;2023-06-14T05:00:38;20.90;99.90
29207;DHT22;16247;50.840;4.382;2023-06-14T05:03:04;20.90;99.90
29207;DHT22;16247;50.840;4.382;2023-06-14T05:05:31;21.00;99.90
29207;DHT22;16247;50.840;4.382;2023-06-14T05:07:57;20.80;99.90
29207;DHT22;16247;50.840;4.382;2023-06-14T05:10:24;21.00;99.90
29207;DHT22;16247;50.840;4.382;2023-06-14T05:12:50;21.30;99.90
29207;DHT22;16247;50.840;4.382;2023-06-14T05:15:17;21.30;99.90
29207;DHT22;16247;50.840;4.382;2023-06-14T05:17:42;21.40;99.90
29207;DHT22;16247;50.840;4.382;2023-06-14T05:20:08;21.40;99.90
29207;DHT22;16247;50.840;4.382;2023-06-14T05:22:35;21.40;99.90
29207;DHT22;16247;50.840;4.382;2023-06-14T05:25:01;21.60;99.90
29207;DHT22;16247;50.840;4.382;2023-06-14T05:27:27;21.60;99.90
29207;DHT22;16247;50.840;4.382;2023-06-14T05:29:53;21.50;99.90
29207;DHT22;16247;50.840;4.382;2023-06-14T05:32:25;21.50;99.90
29207;DHT22;16247;50.840;4.382;2023-06-14T05:34:51;21.50;99.90
29207;DHT22;16247;50.840;4.382;2023-06-14T05:37:16;21.50;99.90
29207;DHT22;16247;50.840;4.382;2023-06-14T05:39:42;21.40;99.90
29207;DHT22;16247;50.840;4.382;2023-06-14T05:42:08;21.50;99.90
29207;DHT22;16247;50.840;4.382;2023-06-14T05:44:34;21.50;99.90
29207;DHT22;16247;50.840;4.382;2023-06-14T05:47:00;21.40;99.90
29207;DHT22;16247;50.840;4.382;2023-06-14T05:49:26;21.20;99.90
29207;DHT22;16247;50.840;4.382;2023-06-14T05:51:52;21.40;99.90
29207;DHT22;16247;50.840;4.382;2023-06-14T05:54:17;21.70;99.90
29207;DHT22;16247;50.840;4.382;2023-06-14T05:56:43;21.50;99.90
29207;DHT22;16247;50.840;4.382;2023-06-14T05:59:08;21.40;99.90
29207;DHT22;16247;50.840;4.382;2023-06-14T06:01:34;21.40;99.90
29207;DHT22;16247;50.840;4.382;2023-06-14T06:04:02;21.60;99.90
29207;DHT22;16247;50.840;4.382;2023-06-14T06:06:29;21.50;99.90
29207;DHT22;16247;50.840;4.382;2023-06-14T06:08:54;21.50;99.90
29207;DHT22;16247;50.840;4.382;2023-06-14T06:11:20;21.40;99.90
29207;DHT22;16247;50.840;4.382;2023-06-14T06:13:46;21.50;99.90
29207;DHT22;16247;50.840;4.382;2023-06-14T06:16:11;21.50;99.90
29207;DHT22;16247;50.840;4.382;2023-06-14T06:18:37;21.60;99.90
29207;DHT22;16247;50.840;4.382;2023-06-14T06:21:04;21.90;99.90
29207;DHT22;16247;50.840;4.382;2023-06-14T06:23:30;22.20;99.90
29207;DHT22;16247;50.840;4.382;2023-06-14T06:25:55;22.30;99.90
29207;DHT22;16247;50.840;4.382;2023-06-14T06:28:21;22.50;99.90
29207;DHT22;16247;50.840;4.382;2023-06-14T06:30:47;22.70;99.90
29207;DHT22;16247;50.840;4.382;2023-06-14T06:33:12;22.90;99.90
29207;DHT22;16247;50.840;4.382;2023-06-14T06:35:41;23.00;99.90
29207;DHT22;16247;50.840;4.382;2023-06-14T06:38:09;23.10;99.90
29207;DHT22;16247;50.840;4.382;2023-06-14T06:40:35;23.20;99.90
29207;DHT22;16247;50.840;4.382;2023-06-14T06:43:02;23.20;99.90
29207;DHT22;16247;50.840;4.382;2023-06-14T06:45:28;23.40;99.90
29207;DHT22;16247;50.840;4.382;2023-06-14T06:47:54;23.40;99.90
29207;DHT22;16247;50.840;4.382;2023-06-14T06:50:21;23.40;99.90
29207;DHT22;16247;50.840;4.382;2023-06-14T06:52:49;23.60;99.90
29207;DHT22;16247;50.840;4.382;2023-06-14T06:55:15;23.60;99.90
29207;DHT22;16247;50.840;4.382;2023-06-14T06:57:41;23.70;99.90
29207;DHT22;16247;50.840;4.382;2023-06-14T07:00:08;24.00;99.90
29207;DHT22;16247;50.840;4.382;2023-06-14T07:02:35;23.80;99.90
29207;DHT22;16247;50.840;4.382;2023-06-14T07:05:00;23.90;99.60
29207;DHT22;16247;50.840;4.382;2023-06-14T07:07:26;23.80;99.70
29207;DHT22;16247;50.840;4.382;2023-06-14T07:09:52;23.90;99.00
29207;DHT22;16247;50.840;4.382;2023-06-14T07:12:17;23.90;99.10
29207;DHT22;16247;50.840;4.382;2023-06-14T07:14:43;23.90;98.80
29207;DHT22;16247;50.840;4.382;2023-06-14T07:17:09;23.90;99.00
29207;DHT22;16247;50.840;4.382;2023-06-14T07:19:35;24.00;99.00
29207;DHT22;16247;50.840;4.382;2023-06-14T07:22:00;24.10;99.10
29207;DHT22;16247;50.840;4.382;2023-06-14T07:24:26;24.10;98.90
29207;DHT22;16247;50.840;4.382;2023-06-14T07:26:54;24.00;99.20
29207;DHT22;16247;50.840;4.382;2023-06-14T07:29:20;24.10;99.10
29207;DHT22;16247;50.840;4.382;2023-06-14T07:31:47;24.20;98.90
29207;DHT22;16247;50.840;4.382;2023-06-14T07:34:12;24.30;98.80
29207;DHT22;16247;50.840;4.382;2023-06-14T07:36:38;24.30;98.80
29207;DHT22;16247;50.840;4.382;2023-06-14T07:39:04;24.50;98.50
29207;DHT22;16247;50.840;4.382;2023-06-14T07:41:32;24.50;98.60
29207;DHT22;16247;50.840;4.382;2023-06-14T07:43:58;24.60;98.70
29207;DHT22;16247;50.840;4.382;2023-06-14T07:46:23;24.80;98.60
29207;DHT22;16247;50.840;4.382;2023-06-14T07:48:49;24.70;98.00
29207;DHT22;16247;50.840;4.382;2023-06-14T07:51:15;24.80;97.90
29207;DHT22;16247;50.840;4.382;2023-06-14T07:53:40;24.80;97.60
29207;DHT22;16247;50.840;4.382;2023-06-14T07:56:07;24.90;97.70
29207;DHT22;16247;50.840;4.382;2023-06-14T07:58:33;25.00;97.70
29207;DHT22;16247;50.840;4.382;2023-06-14T08:00:58;24.90;98.30
29207;DHT22;16247;50.840;4.382;2023-06-14T08:03:26;25.10;97.70
29207;DHT22;16247;50.840;4.382;2023-06-14T08:05:52;25.20;97.50
29207;DHT22;16247;50.840;4.382;2023-06-14T08:08:18;25.20;98.40
29207;DHT22;16247;50.840;4.382;2023-06-14T08:10:44;25.20;98.10
29207;DHT22;16247;50.840;4.382;2023-06-14T08:13:09;25.20;98.80
29207;DHT22;16247;50.840;4.382;2023-06-14T08:15:35;25.20;97.50
29207;DHT22;16247;50.840;4.382;2023-06-14T08:18:01;25.50;98.30
29207;DHT22;16247;50.840;4.382;2023-06-14T08:20:27;25.50;96.60
29207;DHT22;16247;50.840;4.382;2023-06-14T08:22:53;25.60;97.20
29207;DHT22;16247;50.840;4.382;2023-06-14T08:30:39;25.60;97.50
29207;DHT22;16247;50.840;4.382;2023-06-14T08:33:36;25.70;97.20
29207;DHT22;16247;50.840;4.382;2023-06-14T08:36:03;25.70;96.90
29207;DHT22;16247;50.840;4.382;2023-06-14T08:38:32;25.70;96.40
29207;DHT22;16247;50.840;4.382;2023-06-14T08:40:58;25.80;96.40
29207;DHT22;16247;50.840;4.382;2023-06-14T08:43:24;25.80;96.20
29207;DHT22;16247;50.840;4.382;2023-06-14T08:46:00;25.90;96.00
29207;DHT22;16247;50.840;4.382;2023-06-14T08:48:46;25.90;95.60
29207;DHT22;16247;50.840;4.382;2023-06-14T08:51:20;25.90;96.20
29207;DHT22;16247;50.840;4.382;2023-06-14T08:57:30;26.10;96.30
29207;DHT22;16247;50.840;4.382;2023-06-14T08:59:57;26.10;96.50
29207;DHT22;16247;50.840;4.382;2023-06-14T09:02:48;26.20;95.70
29207;DHT22;16247;50.840;4.382;2023-06-14T09:12:24;26.00;96.30
29207;DHT22;16247;50.840;4.382;2023-06-14T09:14:53;25.90;96.90
29207;DHT22;16247;50.840;4.382;2023-06-14T09:17:19;26.10;97.40
29207;DHT22;16247;50.840;4.382;2023-06-14T09:19:46;26.30;97.60
29207;DHT22;16247;50.840;4.382;2023-06-14T09:22:12;26.30;97.50
29207;DHT22;16247;50.840;4.382;2023-06-14T09:24:41;26.40;97.80
29207;DHT22;16247;50.840;4.382;2023-06-14T09:27:15;26.60;97.40
29207;DHT22;16247;50.840;4.382;2023-06-14T09:29:42;26.70;97.40
29207;DHT22;16247;50.840;4.382;2023-06-14T09:32:12;26.70;96.00
29207;DHT22;16247;50.840;4.382;2023-06-14T09:34:42;26.70;95.60
29207;DHT22;16247;50.840;4.382;2023-06-14T09:37:30;27.00;95.50
29207;DHT22;16247;50.840;4.382;2023-06-14T09:39:56;27.00;95.20
29207;DHT22;16247;50.840;4.382;2023-06-14T09:42:25;27.10;95.00
29207;DHT22;16247;50.840;4.382;2023-06-14T09:44:52;27.20;94.90
29207;DHT22;16247;50.840;4.382;2023-06-14T09:47:19;27.30;94.80
29207;DHT22;16247;50.840;4.382;2023-06-14T09:49:46;27.20;95.00
29207;DHT22;16247;50.840;4.382;2023-06-14T09:52:18;27.30;95.20
29207;DHT22;16247;50.840;4.382;2023-06-14T09:54:50;27.50;94.10
29207;DHT22;16247;50.840;4.382;2023-06-14T09:57:21;27.50;93.40
29207;DHT22;16247;50.840;4.382;2023-06-14T09:59:53;27.50;93.60
29207;DHT22;16247;50.840;4.382;2023-06-14T10:02:30;27.60;93.80
29207;DHT22;16247;50.840;4.382;2023-06-14T10:05:07;27.70;93.00
29207;DHT22;16247;50.840;4.382;2023-06-14T10:10:25;27.50;91.60
29207;DHT22;16247;50.840;4.382;2023-06-14T10:13:00;27.70;91.60
29207;DHT22;16247;50.840;4.382;2023-06-14T10:15:58;27.40;91.40
29207;DHT22;16247;50.840;4.382;2023-06-14T10:21:57;27.50;92.00
29207;DHT22;16247;50.840;4.382;2023-06-14T10:24:43;27.50;91.50
29207;DHT22;16247;50.840;4.382;2023-06-14T10:27:23;27.70;91.70
29207;DHT22;16247;50.840;4.382;2023-06-14T10:30:03;27.80;91.20
29207;DHT22;16247;50.840;4.382;2023-06-14T10:32:32;27.70;91.10
29207;DHT22;16247;50.840;4.382;2023-06-14T10:35:25;27.60;91.40
29207;DHT22;16247;50.840;4.382;2023-06-14T10:38:06;27.80;91.20
29207;DHT22;16247;50.840;4.382;2023-06-14T10:40:53;27.90;90.40
29207;DHT22;16247;50.840;4.382;2023-06-14T10:43:26;27.70;90.70
29207;DHT22;16247;50.840;4.382;2023-06-14T10:46:17;27.60;91.10
29207;DHT22;16247;50.840;4.382;2023-06-14T10:49:00;27.70;91.10
29207;DHT22;16247;50.840;4.382;2023-06-14T10:51:42;27.90;90.90
29207;DHT22;16247;50.840;4.382;2023-06-14T10:54:22;28.00;90.50
29207;DHT22;16247;50.840;4.382;2023-06-14T11:07:58;28.30;89.40
29207;DHT22;16247;50.840;4.382;2023-06-14T11:10:41;28.40;88.50
29207;DHT22;16247;50.840;4.382;2023-06-14T11:13:10;28.30;88.50
29207;DHT22;16247;50.840;4.382;2023-06-14T11:15:44;28.30;87.40
29207;DHT22;16247;50.840;4.382;2023-06-14T11:18:18;28.30;87.70
29207;DHT22;16247;50.840;4.382;2023-06-14T11:21:21;28.40;88.10
29207;DHT22;16247;50.840;4.382;2023-06-14T11:44:17;28.60;85.70
29207;DHT22;16247;50.840;4.382;2023-06-14T11:46:52;28.60;85.70
29207;DHT22;16247;50.840;4.382;2023-06-14T11:49:49;28.60;86.40
29207;DHT22;16247;50.840;4.382;2023-06-14T11:56:04;28.90;85.20
29207;DHT22;16247;50.840;4.382;2023-06-14T11:58:39;29.10;84.80
29207;DHT22;16247;50.840;4.382;2023-06-14T12:02:06;29.00;84.50
29207;DHT22;16247;50.840;4.382;2023-06-14T12:04:54;29.20;85.10
29207;DHT22;16247;50.840;4.382;2023-06-14T12:07:47;28.90;84.40
29207;DHT22;16247;50.840;4.382;2023-06-14T12:11:12;29.10;84.80
29207;DHT22;16247;50.840;4.382;2023-06-14T12:14:29;29.00;84.20
29207;DHT22;16247;50.840;4.382;2023-06-14T12:17:10;29.20;84.30
29207;DHT22;16247;50.840;4.382;2023-06-14T12:20:34;29.40;84.40
29207;DHT22;16247;50.840;4.382;2023-06-14T12:30:15;29.30;81.80
29207;DHT22;16247;50.840;4.382;2023-06-14T12:33:18;29.30;80.80
29207;DHT22;16247;50.840;4.382;2023-06-14T12:36:19;29.10;80.90
29207;DHT22;16247;50.840;4.382;2023-06-14T12:39:36;29.30;80.90
29207;DHT22;16247;50.840;4.382;2023-06-14T12:42:59;29.10;81.10
29207;DHT22;16247;50.840;4.382;2023-06-14T12:46:00;29.10;80.70
29207;DHT22;16247;50.840;4.382;2023-06-14T12:51:33;28.90;80.30
29207;DHT22;16247;50.840;4.382;2023-06-14T12:54:48;28.80;80.50
29207;DHT22;16247;50.840;4.382;2023-06-14T12:57:36;28.80;82.30
29207;DHT22;16247;50.840;4.382;2023-06-14T13:00:29;29.00;82.00
29207;DHT22;16247;50.840;4.382;2023-06-14T13:08:54;29.00;81.20
29207;DHT22;16247;50.840;4.382;2023-06-14T15:21:22;29.50;72.10
29207;DHT22;16247;50.840;4.382;2023-06-14T15:45:13;29.40;73.20
29207;DHT22;16247;50.840;4.382;2023-06-14T16:01:22;29.20;73.30
29207;DHT22;16247;50.840;4.382;2023-06-14T16:07:10;29.20;73.10
29207;DHT22;16247;50.840;4.382;2023-06-14T16:09:59;29.30;73.10
29207;DHT22;16247;50.840;4.382;2023-06-14T16:15:43;29.40;73.10
29207;DHT22;16247;50.840;4.382;2023-06-14T16:18:36;29.30;72.90
29207;DHT22;16247;50.840;4.382;2023-06-14T16:44:58;29.00;75.80
29207;DHT22;16247;50.840;4.382;2023-06-14T16:47:35;29.00;76.00
29207;DHT22;16247;50.840;4.382;2023-06-14T16:50:30;28.60;76.20
29207;DHT22;16247;50.840;4.382;2023-06-14T16:53:24;28.80;76.20
29207;DHT22;16247;50.840;4.382;2023-06-14T17:40:22;29.40;72.90
29207;DHT22;16247;50.840;4.382;2023-06-14T20:43:18;25.50;84.40
29207;DHT22;16247;50.840;4.382;2023-06-14T20:48:38;25.40;84.90
29207;DHT22;16247;50.840;4.382;2023-06-14T20:51:03;25.40;85.30
29207;DHT22;16247;50.840;4.382;2023-06-14T20:53:30;25.20;85.80
29207;DHT22;16247;50.840;4.382;2023-06-14T20:56:02;25.20;86.10
29207;DHT22;16247;50.840;4.382;2023-06-14T20:58:31;25.10;86.40
29207;DHT22;16247;50.840;4.382;2023-06-14T21:00:59;25.20;86.60
29207;DHT22;16247;50.840;4.382;2023-06-14T21:03:43;25.00;87.00
29207;DHT22;16247;50.840;4.382;2023-06-14T21:20:23;25.20;87.50
29207;DHT22;16247;50.840;4.382;2023-06-14T21:22:55;25.00;88.30
29207;DHT22;16247;50.840;4.382;2023-06-14T21:25:48;24.60;88.50
29207;DHT22;16247;50.840;4.382;2023-06-14T23:04:13;23.20;93.00
29207;DHT22;16247;50.840;4.382;2023-06-14T23:06:45;23.20;93.40
29207;DHT22;16247;50.840;4.382;2023-06-14T23:09:22;23.20;93.50
